This is the latest recevied weather packets stored in our database for station/object AG1T-20. If no packets are shown the sender has not sent any weather packets the latest 1 day(s).
| Time | Temp. | Humidity | Pressure | Rain* | Wind** | Luminosity | Snow |
|---|---|---|---|---|---|---|---|
| 1778023205 | 16.67° C | 44% | 1011.3 hPa | 0 mm | 0.45 m/s, 156° | 238 W/m² | - |
| 1778022604 | 17.22° C | 44% | 1011.3 hPa | 0 mm | 0.45 m/s, 205° | 274 W/m² | - |
| 1778022005 | 16.67° C | 45% | 1011.3 hPa | 0 mm | 0.89 m/s, 233° | 292 W/m² | - |
| 1778021404 | 16.67° C | 47% | 1012.3 hPa | 0 mm | 0.89 m/s, 142° | 325 W/m² | - |
| 1778020805 | 16.67° C | 50% | 1012.3 hPa | 0 mm | 0.45 m/s, 156° | 358 W/m² | - |
| 1778020216 | 15.56° C | 53% | 1012.3 hPa | 0 mm | 0.89 m/s, 196° | 354 W/m² | - |
| 1778019604 | 15.56° C | 52% | 1012.3 hPa | 0 mm | 0.45 m/s, 75° | 480 W/m² | - |
| 1778019004 | 15.56° C | 49% | 1012.3 hPa | 0 mm | 0.89 m/s, 303° | 146 W/m² | - |
| 1778018404 | 16.11° C | 53% | 1012.3 hPa | 0 mm | 0.89 m/s, 203° | 507 W/m² | - |
| 1778017805 | 15.56° C | 53% | 1013.1 hPa | 0 mm | 0.89 m/s, 124° | 540 W/m² | - |
| 1778017204 | 15° C | 53% | 1013.1 hPa | 0 mm | 0.89 m/s, 167° | 583 W/m² | - |
| 1778016604 | 15.56° C | 53% | 1013.1 hPa | 0 mm | 0.89 m/s, 166° | 592 W/m² | - |
| 1778016005 | 14.44° C | 58% | 1013.1 hPa | 0 mm | 0.89 m/s, 122° | 624 W/m² | - |
| 1778015404 | 13.33° C | 57% | 1013.1 hPa | 0 mm | 1.34 m/s, 163° | 654 W/m² | - |
| 1778014804 | 13.89° C | 59% | 1013.1 hPa | 0 mm | 0.89 m/s, 177° | 683 W/m² | - |
| 1778014204 | 13.33° C | 61% | 1013.7 hPa | 0 mm | 1.34 m/s, 159° | 712 W/m² | - |
| 1778013604 | 12.22° C | 64% | 1013.7 hPa | 0 mm | 1.34 m/s, 160° | 518 W/m² | - |
| 1778013004 | 12.22° C | 68% | 1013.7 hPa | 0 mm | 1.79 m/s, 140° | 812 W/m² | - |
| 1778012404 | 12.22° C | 73% | 1013.7 hPa | 0.25 mm | 1.34 m/s, 218° | 809 W/m² | - |
| 1778011804 | 11.67° C | 75% | 1013.7 hPa | 0.25 mm | 1.34 m/s, 195° | 642 W/m² | - |
| 1778011204 | 11.67° C | - | - | 0.25 mm | 1.34 m/s, 149° | 101 W/m² | - |
| 1778010604 | 10.56° C | 81% | 1014.2 hPa | 0.25 mm | 1.34 m/s, 181° | 497 W/m² | - |
| 1778010005 | 10.56° C | 81% | 1014.2 hPa | 0.51 mm | 1.34 m/s, 188° | 434 W/m² | - |
| 1778009404 | 10.56° C | 83% | 1014.2 hPa | 1.27 mm | 1.34 m/s, 186° | 359 W/m² | - |
| 1778008804 | 10° C | 85% | 1014.2 hPa | 1.78 mm | 1.34 m/s, 130° | 375 W/m² | - |
* Rain latest hour (hover to see other rain measurements)
** Current wind speed in m/s (hover to see current wind gust speed)